sensor_id;sensor_type;location;lat;lon;timestamp;temperature;humidity
7240;DHT22;3661;53.288;10.458;2023-05-07T00:01:11;9.60;99.90
7240;DHT22;3661;53.288;10.458;2023-05-07T00:03:43;9.60;99.90
7240;DHT22;3661;53.288;10.458;2023-05-07T00:06:15;9.60;99.90
7240;DHT22;3661;53.288;10.458;2023-05-07T00:08:49;9.60;99.90
7240;DHT22;3661;53.288;10.458;2023-05-07T00:11:22;9.60;99.90
7240;DHT22;3661;53.288;10.458;2023-05-07T00:13:54;9.60;99.90
7240;DHT22;3661;53.288;10.458;2023-05-07T00:16:26;9.60;99.90
7240;DHT22;3661;53.288;10.458;2023-05-07T00:18:58;9.60;99.90
7240;DHT22;3661;53.288;10.458;2023-05-07T00:21:30;9.60;99.90
7240;DHT22;3661;53.288;10.458;2023-05-07T00:24:04;9.60;99.90
7240;DHT22;3661;53.288;10.458;2023-05-07T00:26:36;9.60;99.90
7240;DHT22;3661;53.288;10.458;2023-05-07T00:29:08;9.50;99.90
7240;DHT22;3661;53.288;10.458;2023-05-07T00:31:43;9.50;99.90
7240;DHT22;3661;53.288;10.458;2023-05-07T00:34:16;9.50;99.90
7240;DHT22;3661;53.288;10.458;2023-05-07T00:36:50;9.50;99.90
7240;DHT22;3661;53.288;10.458;2023-05-07T00:39:23;9.50;99.90
7240;DHT22;3661;53.288;10.458;2023-05-07T00:41:55;9.50;99.90
7240;DHT22;3661;53.288;10.458;2023-05-07T00:44:27;9.50;99.90
7240;DHT22;3661;53.288;10.458;2023-05-07T00:47:02;9.50;99.90
7240;DHT22;3661;53.288;10.458;2023-05-07T00:49:38;9.50;99.90
7240;DHT22;3661;53.288;10.458;2023-05-07T00:52:14;9.50;99.90
7240;DHT22;3661;53.288;10.458;2023-05-07T00:54:47;9.50;99.90
7240;DHT22;3661;53.288;10.458;2023-05-07T00:57:21;9.50;99.90
7240;DHT22;3661;53.288;10.458;2023-05-07T00:59:54;9.50;99.90
7240;DHT22;3661;53.288;10.458;2023-05-07T01:02:26;9.50;99.90
7240;DHT22;3661;53.288;10.458;2023-05-07T01:04:58;9.50;99.90
7240;DHT22;3661;53.288;10.458;2023-05-07T01:07:32;9.50;99.90
7240;DHT22;3661;53.288;10.458;2023-05-07T01:10:07;9.50;99.90
7240;DHT22;3661;53.288;10.458;2023-05-07T01:12:41;9.50;99.90
7240;DHT22;3661;53.288;10.458;2023-05-07T01:15:15;9.50;99.90
7240;DHT22;3661;53.288;10.458;2023-05-07T01:17:48;9.50;99.90
7240;DHT22;3661;53.288;10.458;2023-05-07T01:20:20;9.50;99.90
7240;DHT22;3661;53.288;10.458;2023-05-07T01:22:56;9.50;99.90
7240;DHT22;3661;53.288;10.458;2023-05-07T01:25:29;9.40;99.90
7240;DHT22;3661;53.288;10.458;2023-05-07T01:28:01;9.40;99.90
7240;DHT22;3661;53.288;10.458;2023-05-07T01:30:34;9.50;99.90
7240;DHT22;3661;53.288;10.458;2023-05-07T01:33:10;9.40;99.90
7240;DHT22;3661;53.288;10.458;2023-05-07T01:35:45;9.40;99.90
7240;DHT22;3661;53.288;10.458;2023-05-07T01:38:21;9.40;99.90
7240;DHT22;3661;53.288;10.458;2023-05-07T01:40:54;9.40;99.90
7240;DHT22;3661;53.288;10.458;2023-05-07T01:43:29;9.50;99.90
7240;DHT22;3661;53.288;10.458;2023-05-07T01:46:03;9.40;99.90
7240;DHT22;3661;53.288;10.458;2023-05-07T01:48:36;9.40;99.90
7240;DHT22;3661;53.288;10.458;2023-05-07T01:51:09;9.40;99.90
7240;DHT22;3661;53.288;10.458;2023-05-07T01:53:43;9.40;99.90
7240;DHT22;3661;53.288;10.458;2023-05-07T01:56:16;9.40;99.90
7240;DHT22;3661;53.288;10.458;2023-05-07T01:58:50;9.40;99.90
7240;DHT22;3661;53.288;10.458;2023-05-07T02:01:22;9.40;99.90
7240;DHT22;3661;53.288;10.458;2023-05-07T02:03:55;9.40;99.90
7240;DHT22;3661;53.288;10.458;2023-05-07T02:06:27;9.40;99.90
7240;DHT22;3661;53.288;10.458;2023-05-07T02:09:01;9.40;99.90
7240;DHT22;3661;53.288;10.458;2023-05-07T02:11:36;9.40;99.90
7240;DHT22;3661;53.288;10.458;2023-05-07T02:14:08;9.40;99.90
7240;DHT22;3661;53.288;10.458;2023-05-07T02:16:41;9.40;99.90
7240;DHT22;3661;53.288;10.458;2023-05-07T02:19:13;9.40;99.90
7240;DHT22;3661;53.288;10.458;2023-05-07T02:21:45;9.40;99.90
7240;DHT22;3661;53.288;10.458;2023-05-07T02:24:22;9.40;99.90
7240;DHT22;3661;53.288;10.458;2023-05-07T02:26:56;9.40;99.90
7240;DHT22;3661;53.288;10.458;2023-05-07T02:29:28;9.40;99.90
7240;DHT22;3661;53.288;10.458;2023-05-07T02:32:01;9.40;99.90
7240;DHT22;3661;53.288;10.458;2023-05-07T02:34:33;9.40;99.90
7240;DHT22;3661;53.288;10.458;2023-05-07T02:37:06;9.40;99.90
7240;DHT22;3661;53.288;10.458;2023-05-07T02:39:45;9.40;99.90
7240;DHT22;3661;53.288;10.458;2023-05-07T02:42:18;9.40;99.90
7240;DHT22;3661;53.288;10.458;2023-05-07T02:44:52;9.40;99.90
7240;DHT22;3661;53.288;10.458;2023-05-07T02:47:24;9.30;99.90
7240;DHT22;3661;53.288;10.458;2023-05-07T02:49:57;9.40;99.90
7240;DHT22;3661;53.288;10.458;2023-05-07T02:52:30;9.30;99.90
7240;DHT22;3661;53.288;10.458;2023-05-07T02:55:04;9.40;99.90
7240;DHT22;3661;53.288;10.458;2023-05-07T02:57:36;9.30;99.90
7240;DHT22;3661;53.288;10.458;2023-05-07T03:00:13;9.30;99.90
7240;DHT22;3661;53.288;10.458;2023-05-07T03:02:46;9.30;99.90
7240;DHT22;3661;53.288;10.458;2023-05-07T03:05:18;9.30;99.90
7240;DHT22;3661;53.288;10.458;2023-05-07T03:07:52;9.30;99.90
7240;DHT22;3661;53.288;10.458;2023-05-07T03:10:26;9.30;99.90
7240;DHT22;3661;53.288;10.458;2023-05-07T03:12:58;9.30;99.90
7240;DHT22;3661;53.288;10.458;2023-05-07T03:15:31;9.30;99.90
7240;DHT22;3661;53.288;10.458;2023-05-07T03:18:04;9.30;99.90
7240;DHT22;3661;53.288;10.458;2023-05-07T03:20:37;9.30;99.90
7240;DHT22;3661;53.288;10.458;2023-05-07T03:23:09;9.30;99.90
7240;DHT22;3661;53.288;10.458;2023-05-07T03:25:43;9.30;99.90
7240;DHT22;3661;53.288;10.458;2023-05-07T03:28:15;9.30;99.90
7240;DHT22;3661;53.288;10.458;2023-05-07T03:30:47;9.30;99.90
7240;DHT22;3661;53.288;10.458;2023-05-07T03:33:19;9.30;99.90
7240;DHT22;3661;53.288;10.458;2023-05-07T03:35:54;9.30;99.90
7240;DHT22;3661;53.288;10.458;2023-05-07T03:38:27;9.30;99.90
7240;DHT22;3661;53.288;10.458;2023-05-07T03:41:03;9.30;99.90
7240;DHT22;3661;53.288;10.458;2023-05-07T03:43:35;9.30;99.90
7240;DHT22;3661;53.288;10.458;2023-05-07T03:46:09;9.30;99.90
7240;DHT22;3661;53.288;10.458;2023-05-07T03:48:44;9.30;99.90
7240;DHT22;3661;53.288;10.458;2023-05-07T03:51:17;9.30;99.90
7240;DHT22;3661;53.288;10.458;2023-05-07T03:53:49;9.30;99.90
7240;DHT22;3661;53.288;10.458;2023-05-07T03:56:25;9.30;99.90
7240;DHT22;3661;53.288;10.458;2023-05-07T03:58:58;9.30;99.90
7240;DHT22;3661;53.288;10.458;2023-05-07T04:01:30;9.30;99.90
7240;DHT22;3661;53.288;10.458;2023-05-07T04:04:02;9.30;99.90
7240;DHT22;3661;53.288;10.458;2023-05-07T04:06:35;9.30;99.90
7240;DHT22;3661;53.288;10.458;2023-05-07T04:09:08;9.30;99.90
7240;DHT22;3661;53.288;10.458;2023-05-07T04:11:43;9.30;99.90
7240;DHT22;3661;53.288;10.458;2023-05-07T04:14:15;9.30;99.90
7240;DHT22;3661;53.288;10.458;2023-05-07T04:16:47;9.30;99.90
7240;DHT22;3661;53.288;10.458;2023-05-07T04:19:19;9.30;99.90
7240;DHT22;3661;53.288;10.458;2023-05-07T04:21:51;9.30;99.90
7240;DHT22;3661;53.288;10.458;2023-05-07T04:24:24;9.30;99.90
7240;DHT22;3661;53.288;10.458;2023-05-07T04:26:57;9.30;99.90
7240;DHT22;3661;53.288;10.458;2023-05-07T04:29:31;9.30;99.90
7240;DHT22;3661;53.288;10.458;2023-05-07T04:32:03;9.30;99.90
7240;DHT22;3661;53.288;10.458;2023-05-07T04:34:37;9.30;99.90
7240;DHT22;3661;53.288;10.458;2023-05-07T04:37:10;9.30;99.90
7240;DHT22;3661;53.288;10.458;2023-05-07T04:39:45;9.30;99.90
7240;DHT22;3661;53.288;10.458;2023-05-07T04:42:20;9.30;99.90
7240;DHT22;3661;53.288;10.458;2023-05-07T04:44:53;9.30;99.90
7240;DHT22;3661;53.288;10.458;2023-05-07T04:47:25;9.30;99.90
7240;DHT22;3661;53.288;10.458;2023-05-07T04:49:58;9.30;99.90
7240;DHT22;3661;53.288;10.458;2023-05-07T04:52:32;9.40;99.90
7240;DHT22;3661;53.288;10.458;2023-05-07T04:55:05;9.40;99.90
7240;DHT22;3661;53.288;10.458;2023-05-07T04:57:39;9.40;99.90
7240;DHT22;3661;53.288;10.458;2023-05-07T05:00:12;9.40;99.90
7240;DHT22;3661;53.288;10.458;2023-05-07T05:02:45;9.40;99.90
7240;DHT22;3661;53.288;10.458;2023-05-07T05:05:20;9.40;99.90
7240;DHT22;3661;53.288;10.458;2023-05-07T05:07:52;9.40;99.90
7240;DHT22;3661;53.288;10.458;2023-05-07T05:10:24;9.40;99.90
7240;DHT22;3661;53.288;10.458;2023-05-07T05:12:58;9.40;99.90
7240;DHT22;3661;53.288;10.458;2023-05-07T05:15:30;9.40;99.90
7240;DHT22;3661;53.288;10.458;2023-05-07T05:18:02;9.40;99.90
7240;DHT22;3661;53.288;10.458;2023-05-07T05:20:34;9.40;99.90
7240;DHT22;3661;53.288;10.458;2023-05-07T05:23:07;9.40;99.90
7240;DHT22;3661;53.288;10.458;2023-05-07T05:25:39;9.50;99.90
7240;DHT22;3661;53.288;10.458;2023-05-07T05:28:13;9.50;99.90
7240;DHT22;3661;53.288;10.458;2023-05-07T05:30:45;9.50;99.90
7240;DHT22;3661;53.288;10.458;2023-05-07T05:33:17;9.50;99.90
7240;DHT22;3661;53.288;10.458;2023-05-07T05:35:49;9.50;99.90
7240;DHT22;3661;53.288;10.458;2023-05-07T05:38:22;9.50;99.90
7240;DHT22;3661;53.288;10.458;2023-05-07T05:40:54;9.50;99.90
7240;DHT22;3661;53.288;10.458;2023-05-07T05:43:28;9.50;99.90
7240;DHT22;3661;53.288;10.458;2023-05-07T05:46:00;9.50;99.90
7240;DHT22;3661;53.288;10.458;2023-05-07T05:48:34;9.60;99.90
7240;DHT22;3661;53.288;10.458;2023-05-07T05:51:07;9.60;99.90
7240;DHT22;3661;53.288;10.458;2023-05-07T05:53:39;9.60;99.90
7240;DHT22;3661;53.288;10.458;2023-05-07T05:56:11;9.60;99.90
7240;DHT22;3661;53.288;10.458;2023-05-07T05:58:44;9.60;99.90
7240;DHT22;3661;53.288;10.458;2023-05-07T06:01:17;9.60;99.90
7240;DHT22;3661;53.288;10.458;2023-05-07T06:03:50;9.70;99.90
7240;DHT22;3661;53.288;10.458;2023-05-07T06:06:22;9.70;99.90
7240;DHT22;3661;53.288;10.458;2023-05-07T06:08:54;9.70;99.90
7240;DHT22;3661;53.288;10.458;2023-05-07T06:11:26;9.70;99.90
7240;DHT22;3661;53.288;10.458;2023-05-07T06:13:59;9.70;99.90
7240;DHT22;3661;53.288;10.458;2023-05-07T06:16:31;9.70;99.90
7240;DHT22;3661;53.288;10.458;2023-05-07T06:19:04;9.80;99.90
7240;DHT22;3661;53.288;10.458;2023-05-07T06:21:36;9.80;99.90
7240;DHT22;3661;53.288;10.458;2023-05-07T06:24:08;9.80;99.90
7240;DHT22;3661;53.288;10.458;2023-05-07T06:26:40;9.80;99.90
7240;DHT22;3661;53.288;10.458;2023-05-07T06:29:16;9.80;99.90
7240;DHT22;3661;53.288;10.458;2023-05-07T06:31:49;9.80;99.90
7240;DHT22;3661;53.288;10.458;2023-05-07T06:34:23;9.80;99.90
7240;DHT22;3661;53.288;10.458;2023-05-07T06:36:55;9.90;99.90
7240;DHT22;3661;53.288;10.458;2023-05-07T06:39:28;9.90;99.90
7240;DHT22;3661;53.288;10.458;2023-05-07T06:42:00;9.90;99.90
7240;DHT22;3661;53.288;10.458;2023-05-07T06:44:34;9.90;99.90
7240;DHT22;3661;53.288;10.458;2023-05-07T06:47:06;9.90;99.90
7240;DHT22;3661;53.288;10.458;2023-05-07T06:49:38;9.90;99.90
7240;DHT22;3661;53.288;10.458;2023-05-07T06:52:10;10.00;99.90
7240;DHT22;3661;53.288;10.458;2023-05-07T06:54:42;10.00;99.90
7240;DHT22;3661;53.288;10.458;2023-05-07T06:57:14;10.00;99.90
7240;DHT22;3661;53.288;10.458;2023-05-07T06:59:47;10.00;99.90
7240;DHT22;3661;53.288;10.458;2023-05-07T07:02:19;10.10;99.90
7240;DHT22;3661;53.288;10.458;2023-05-07T07:04:54;10.10;99.90
7240;DHT22;3661;53.288;10.458;2023-05-07T07:07:26;10.10;99.90
7240;DHT22;3661;53.288;10.458;2023-05-07T07:09:58;10.10;99.90
7240;DHT22;3661;53.288;10.458;2023-05-07T07:12:30;10.10;99.90
7240;DHT22;3661;53.288;10.458;2023-05-07T07:15:04;10.20;99.90
7240;DHT22;3661;53.288;10.458;2023-05-07T07:17:37;10.20;99.90
7240;DHT22;3661;53.288;10.458;2023-05-07T07:20:09;10.20;99.90
7240;DHT22;3661;53.288;10.458;2023-05-07T07:22:42;10.20;99.90
7240;DHT22;3661;53.288;10.458;2023-05-07T07:25:14;10.20;99.90
7240;DHT22;3661;53.288;10.458;2023-05-07T07:27:46;10.20;99.90
7240;DHT22;3661;53.288;10.458;2023-05-07T07:30:19;10.30;99.90
7240;DHT22;3661;53.288;10.458;2023-05-07T07:32:52;10.30;99.90
7240;DHT22;3661;53.288;10.458;2023-05-07T07:35:24;10.30;99.90
7240;DHT22;3661;53.288;10.458;2023-05-07T07:37:57;10.30;99.90
7240;DHT22;3661;53.288;10.458;2023-05-07T07:40:29;10.40;99.90
7240;DHT22;3661;53.288;10.458;2023-05-07T07:43:01;10.40;99.90
7240;DHT22;3661;53.288;10.458;2023-05-07T07:45:35;10.40;99.90
7240;DHT22;3661;53.288;10.458;2023-05-07T07:48:07;10.50;99.90
7240;DHT22;3661;53.288;10.458;2023-05-07T07:50:39;10.50;99.90
7240;DHT22;3661;53.288;10.458;2023-05-07T07:53:11;10.60;99.90
7240;DHT22;3661;53.288;10.458;2023-05-07T07:55:43;10.60;99.90
7240;DHT22;3661;53.288;10.458;2023-05-07T07:58:15;10.60;99.90
7240;DHT22;3661;53.288;10.458;2023-05-07T08:00:49;10.70;99.90
7240;DHT22;3661;53.288;10.458;2023-05-07T08:03:21;10.70;99.90
7240;DHT22;3661;53.288;10.458;2023-05-07T08:05:53;10.70;99.90
7240;DHT22;3661;53.288;10.458;2023-05-07T08:08:25;10.70;99.90
7240;DHT22;3661;53.288;10.458;2023-05-07T08:10:58;10.80;99.90
7240;DHT22;3661;53.288;10.458;2023-05-07T08:13:30;10.80;99.90
7240;DHT22;3661;53.288;10.458;2023-05-07T08:16:04;10.80;99.90
7240;DHT22;3661;53.288;10.458;2023-05-07T08:18:36;10.90;99.90
7240;DHT22;3661;53.288;10.458;2023-05-07T08:21:08;10.90;99.90
7240;DHT22;3661;53.288;10.458;2023-05-07T08:23:40;10.90;99.90
7240;DHT22;3661;53.288;10.458;2023-05-07T08:26:12;11.00;99.90
7240;DHT22;3661;53.288;10.458;2023-05-07T08:28:44;11.00;99.90
7240;DHT22;3661;53.288;10.458;2023-05-07T08:31:18;11.00;99.90
7240;DHT22;3661;53.288;10.458;2023-05-07T08:33:50;11.10;99.90
7240;DHT22;3661;53.288;10.458;2023-05-07T08:36:22;11.10;99.90
7240;DHT22;3661;53.288;10.458;2023-05-07T08:38:54;11.10;99.90
7240;DHT22;3661;53.288;10.458;2023-05-07T08:41:26;11.10;99.90
7240;DHT22;3661;53.288;10.458;2023-05-07T08:43:59;11.10;99.90
7240;DHT22;3661;53.288;10.458;2023-05-07T08:46:35;11.20;99.90
7240;DHT22;3661;53.288;10.458;2023-05-07T08:49:15;11.20;99.90
7240;DHT22;3661;53.288;10.458;2023-05-07T08:51:47;11.30;99.90
7240;DHT22;3661;53.288;10.458;2023-05-07T08:54:20;11.30;99.90
7240;DHT22;3661;53.288;10.458;2023-05-07T08:56:53;11.30;99.90
7240;DHT22;3661;53.288;10.458;2023-05-07T08:59:25;11.30;99.90
7240;DHT22;3661;53.288;10.458;2023-05-07T09:01:59;11.30;99.90
7240;DHT22;3661;53.288;10.458;2023-05-07T09:04:31;11.40;99.90
7240;DHT22;3661;53.288;10.458;2023-05-07T09:07:04;11.40;99.90
7240;DHT22;3661;53.288;10.458;2023-05-07T09:09:36;11.40;99.90
7240;DHT22;3661;53.288;10.458;2023-05-07T09:12:08;11.50;99.90
7240;DHT22;3661;53.288;10.458;2023-05-07T09:14:41;11.50;99.90
7240;DHT22;3661;53.288;10.458;2023-05-07T09:17:15;11.50;99.90
7240;DHT22;3661;53.288;10.458;2023-05-07T09:19:47;11.60;99.90
7240;DHT22;3661;53.288;10.458;2023-05-07T09:22:19;11.60;99.90
7240;DHT22;3661;53.288;10.458;2023-05-07T09:24:51;11.60;99.90
7240;DHT22;3661;53.288;10.458;2023-05-07T09:27:24;11.70;99.90
7240;DHT22;3661;53.288;10.458;2023-05-07T09:29:56;11.70;99.90
7240;DHT22;3661;53.288;10.458;2023-05-07T09:32:30;11.70;99.90
7240;DHT22;3661;53.288;10.458;2023-05-07T09:35:05;11.80;99.90
7240;DHT22;3661;53.288;10.458;2023-05-07T09:37:38;11.80;99.90
7240;DHT22;3661;53.288;10.458;2023-05-07T09:40:20;11.80;99.90
7240;DHT22;3661;53.288;10.458;2023-05-07T09:42:52;11.90;99.90
7240;DHT22;3661;53.288;10.458;2023-05-07T09:45:25;11.90;99.90
7240;DHT22;3661;53.288;10.458;2023-05-07T09:47:59;12.00;99.90
7240;DHT22;3661;53.288;10.458;2023-05-07T09:50:36;12.10;99.90
7240;DHT22;3661;53.288;10.458;2023-05-07T09:53:10;12.20;99.90
7240;DHT22;3661;53.288;10.458;2023-05-07T09:55:42;12.20;99.90
7240;DHT22;3661;53.288;10.458;2023-05-07T09:58:15;12.30;99.90
7240;DHT22;3661;53.288;10.458;2023-05-07T10:00:48;12.30;99.90
7240;DHT22;3661;53.288;10.458;2023-05-07T10:03:24;12.40;99.90
7240;DHT22;3661;53.288;10.458;2023-05-07T10:05:58;12.40;99.90
7240;DHT22;3661;53.288;10.458;2023-05-07T10:08:31;12.50;99.90
7240;DHT22;3661;53.288;10.458;2023-05-07T10:11:04;12.50;99.90
7240;DHT22;3661;53.288;10.458;2023-05-07T10:13:37;12.60;99.90
7240;DHT22;3661;53.288;10.458;2023-05-07T10:16:09;12.60;99.90
7240;DHT22;3661;53.288;10.458;2023-05-07T10:18:43;12.70;99.90
7240;DHT22;3661;53.288;10.458;2023-05-07T10:21:17;12.70;99.90
7240;DHT22;3661;53.288;10.458;2023-05-07T10:23:53;12.70;99.90
7240;DHT22;3661;53.288;10.458;2023-05-07T10:26:30;12.70;99.90
7240;DHT22;3661;53.288;10.458;2023-05-07T10:29:07;12.80;99.90
7240;DHT22;3661;53.288;10.458;2023-05-07T10:31:51;12.80;99.90
7240;DHT22;3661;53.288;10.458;2023-05-07T10:34:29;12.80;99.90
7240;DHT22;3661;53.288;10.458;2023-05-07T10:37:02;12.90;99.90
7240;DHT22;3661;53.288;10.458;2023-05-07T10:39:35;12.90;99.90
7240;DHT22;3661;53.288;10.458;2023-05-07T10:42:08;13.00;99.90
7240;DHT22;3661;53.288;10.458;2023-05-07T10:44:40;13.00;99.90
7240;DHT22;3661;53.288;10.458;2023-05-07T10:47:14;13.00;99.90
7240;DHT22;3661;53.288;10.458;2023-05-07T10:56:24;13.10;99.90
7240;DHT22;3661;53.288;10.458;2023-05-07T10:59:31;13.10;99.90
7240;DHT22;3661;53.288;10.458;2023-05-07T11:02:04;13.10;99.90
7240;DHT22;3661;53.288;10.458;2023-05-07T11:04:38;13.20;99.90
7240;DHT22;3661;53.288;10.458;2023-05-07T11:07:30;13.20;99.90
7240;DHT22;3661;53.288;10.458;2023-05-07T11:10:03;13.20;99.90
7240;DHT22;3661;53.288;10.458;2023-05-07T11:12:53;13.30;99.90
7240;DHT22;3661;53.288;10.458;2023-05-07T11:15:49;13.40;99.90
7240;DHT22;3661;53.288;10.458;2023-05-07T11:18:22;13.40;99.90
7240;DHT22;3661;53.288;10.458;2023-05-07T11:20:56;13.50;99.90
7240;DHT22;3661;53.288;10.458;2023-05-07T11:26:47;13.60;99.90
7240;DHT22;3661;53.288;10.458;2023-05-07T11:29:21;13.70;99.90
7240;DHT22;3661;53.288;10.458;2023-05-07T11:31:54;13.80;99.90
7240;DHT22;3661;53.288;10.458;2023-05-07T11:34:27;13.80;99.90
7240;DHT22;3661;53.288;10.458;2023-05-07T11:36:59;13.90;99.90
7240;DHT22;3661;53.288;10.458;2023-05-07T11:39:33;13.90;99.90
7240;DHT22;3661;53.288;10.458;2023-05-07T11:42:06;14.00;99.90
7240;DHT22;3661;53.288;10.458;2023-05-07T11:44:44;14.10;99.90
7240;DHT22;3661;53.288;10.458;2023-05-07T11:47:20;14.10;99.90
7240;DHT22;3661;53.288;10.458;2023-05-07T11:49:53;14.20;99.90
7240;DHT22;3661;53.288;10.458;2023-05-07T11:52:26;14.20;99.90
7240;DHT22;3661;53.288;10.458;2023-05-07T11:54:59;14.30;99.90
7240;DHT22;3661;53.288;10.458;2023-05-07T11:57:33;14.40;99.90
7240;DHT22;3661;53.288;10.458;2023-05-07T12:00:08;14.50;99.90
7240;DHT22;3661;53.288;10.458;2023-05-07T12:02:41;14.60;99.90
7240;DHT22;3661;53.288;10.458;2023-05-07T12:05:13;14.70;99.90
7240;DHT22;3661;53.288;10.458;2023-05-07T12:07:45;14.90;99.90
7240;DHT22;3661;53.288;10.458;2023-05-07T12:10:17;15.00;99.90
7240;DHT22;3661;53.288;10.458;2023-05-07T12:12:50;15.20;99.90
7240;DHT22;3661;53.288;10.458;2023-05-07T12:15:24;15.30;99.90
7240;DHT22;3661;53.288;10.458;2023-05-07T12:17:56;15.50;99.90
7240;DHT22;3661;53.288;10.458;2023-05-07T12:20:28;15.60;99.90
7240;DHT22;3661;53.288;10.458;2023-05-07T12:23:01;15.80;99.90
7240;DHT22;3661;53.288;10.458;2023-05-07T12:25:34;15.90;99.90
7240;DHT22;3661;53.288;10.458;2023-05-07T12:28:07;16.00;99.90
7240;DHT22;3661;53.288;10.458;2023-05-07T12:30:42;16.10;99.90
7240;DHT22;3661;53.288;10.458;2023-05-07T12:33:16;16.20;99.90
7240;DHT22;3661;53.288;10.458;2023-05-07T12:35:49;16.30;99.90
7240;DHT22;3661;53.288;10.458;2023-05-07T12:38:21;16.40;99.90
7240;DHT22;3661;53.288;10.458;2023-05-07T12:40:54;16.50;99.90
7240;DHT22;3661;53.288;10.458;2023-05-07T12:43:28;16.50;99.90
7240;DHT22;3661;53.288;10.458;2023-05-07T12:46:03;16.50;99.90
7240;DHT22;3661;53.288;10.458;2023-05-07T12:48:37;16.60;99.90
7240;DHT22;3661;53.288;10.458;2023-05-07T12:51:09;16.60;99.90
7240;DHT22;3661;53.288;10.458;2023-05-07T12:53:43;16.60;99.90
7240;DHT22;3661;53.288;10.458;2023-05-07T12:56:16;16.60;99.90
7240;DHT22;3661;53.288;10.458;2023-05-07T12:58:48;16.60;99.90
7240;DHT22;3661;53.288;10.458;2023-05-07T13:01:28;16.60;99.90
7240;DHT22;3661;53.288;10.458;2023-05-07T13:04:02;16.70;99.90
7240;DHT22;3661;53.288;10.458;2023-05-07T13:06:36;16.70;99.90
7240;DHT22;3661;53.288;10.458;2023-05-07T13:09:08;16.70;99.90
7240;DHT22;3661;53.288;10.458;2023-05-07T13:11:40;16.70;99.90
7240;DHT22;3661;53.288;10.458;2023-05-07T13:14:12;16.80;99.90
7240;DHT22;3661;53.288;10.458;2023-05-07T13:16:45;16.80;99.90
7240;DHT22;3661;53.288;10.458;2023-05-07T13:19:18;16.90;99.90
7240;DHT22;3661;53.288;10.458;2023-05-07T13:21:50;17.00;99.90
7240;DHT22;3661;53.288;10.458;2023-05-07T13:24:22;17.10;99.90
7240;DHT22;3661;53.288;10.458;2023-05-07T13:26:54;17.20;99.90
7240;DHT22;3661;53.288;10.458;2023-05-07T13:29:26;17.20;99.90
7240;DHT22;3661;53.288;10.458;2023-05-07T13:32:02;17.30;99.90
7240;DHT22;3661;53.288;10.458;2023-05-07T13:34:34;17.30;99.90
7240;DHT22;3661;53.288;10.458;2023-05-07T13:37:07;17.30;99.90
7240;DHT22;3661;53.288;10.458;2023-05-07T13:39:39;17.40;99.90
7240;DHT22;3661;53.288;10.458;2023-05-07T13:42:11;17.40;99.90
7240;DHT22;3661;53.288;10.458;2023-05-07T13:44:43;17.40;99.90
7240;DHT22;3661;53.288;10.458;2023-05-07T13:47:17;17.50;99.90
7240;DHT22;3661;53.288;10.458;2023-05-07T13:49:49;17.50;99.90
7240;DHT22;3661;53.288;10.458;2023-05-07T13:52:21;17.60;99.90
7240;DHT22;3661;53.288;10.458;2023-05-07T13:54:53;17.70;99.90
7240;DHT22;3661;53.288;10.458;2023-05-07T13:57:25;17.80;99.90
7240;DHT22;3661;53.288;10.458;2023-05-07T13:59:57;17.80;99.90
7240;DHT22;3661;53.288;10.458;2023-05-07T14:02:31;17.90;99.90
7240;DHT22;3661;53.288;10.458;2023-05-07T14:05:04;18.00;99.90
7240;DHT22;3661;53.288;10.458;2023-05-07T14:07:36;18.00;99.90
7240;DHT22;3661;53.288;10.458;2023-05-07T14:10:08;18.10;99.90
7240;DHT22;3661;53.288;10.458;2023-05-07T14:12:41;18.20;99.90
7240;DHT22;3661;53.288;10.458;2023-05-07T14:15:13;18.20;99.90
7240;DHT22;3661;53.288;10.458;2023-05-07T14:17:48;18.30;99.90
7240;DHT22;3661;53.288;10.458;2023-05-07T14:20:22;18.40;99.90
7240;DHT22;3661;53.288;10.458;2023-05-07T14:22:54;18.50;99.90
7240;DHT22;3661;53.288;10.458;2023-05-07T14:25:26;18.60;99.90
7240;DHT22;3661;53.288;10.458;2023-05-07T14:27:59;18.70;99.90
7240;DHT22;3661;53.288;10.458;2023-05-07T14:30:31;18.70;99.90
7240;DHT22;3661;53.288;10.458;2023-05-07T14:33:04;18.80;99.90
7240;DHT22;3661;53.288;10.458;2023-05-07T14:35:36;18.80;99.90
7240;DHT22;3661;53.288;10.458;2023-05-07T14:38:08;18.90;99.90
7240;DHT22;3661;53.288;10.458;2023-05-07T14:40:40;18.90;99.90
7240;DHT22;3661;53.288;10.458;2023-05-07T14:43:12;19.00;99.90
7240;DHT22;3661;53.288;10.458;2023-05-07T14:45:45;19.00;99.90
7240;DHT22;3661;53.288;10.458;2023-05-07T14:48:19;19.00;99.90
7240;DHT22;3661;53.288;10.458;2023-05-07T14:50:51;19.10;99.90
7240;DHT22;3661;53.288;10.458;2023-05-07T14:53:23;19.10;99.90
7240;DHT22;3661;53.288;10.458;2023-05-07T14:55:55;19.20;99.90
7240;DHT22;3661;53.288;10.458;2023-05-07T14:58:27;19.20;99.90
7240;DHT22;3661;53.288;10.458;2023-05-07T15:01:00;19.30;99.90
7240;DHT22;3661;53.288;10.458;2023-05-07T15:03:34;19.30;99.70
7240;DHT22;3661;53.288;10.458;2023-05-07T15:06:06;19.30;99.40
7240;DHT22;3661;53.288;10.458;2023-05-07T15:08:38;19.40;99.30
7240;DHT22;3661;53.288;10.458;2023-05-07T15:11:11;19.40;98.70
7240;DHT22;3661;53.288;10.458;2023-05-07T15:13:43;19.40;98.50
7240;DHT22;3661;53.288;10.458;2023-05-07T15:16:15;19.40;98.20
7240;DHT22;3661;53.288;10.458;2023-05-07T15:18:48;19.40;98.20
7240;DHT22;3661;53.288;10.458;2023-05-07T15:21:21;19.40;98.20
7240;DHT22;3661;53.288;10.458;2023-05-07T15:23:53;19.50;98.20
7240;DHT22;3661;53.288;10.458;2023-05-07T15:26:25;19.50;97.90
7240;DHT22;3661;53.288;10.458;2023-05-07T15:28:57;19.60;97.70
7240;DHT22;3661;53.288;10.458;2023-05-07T15:31:29;19.60;97.90
7240;DHT22;3661;53.288;10.458;2023-05-07T15:34:03;19.70;97.90
7240;DHT22;3661;53.288;10.458;2023-05-07T15:36:38;19.70;97.90
7240;DHT22;3661;53.288;10.458;2023-05-07T15:39:10;19.70;97.50
7240;DHT22;3661;53.288;10.458;2023-05-07T15:41:42;19.60;97.00
7240;DHT22;3661;53.288;10.458;2023-05-07T15:44:14;19.60;96.90
7240;DHT22;3661;53.288;10.458;2023-05-07T15:46:46;19.60;96.90
7240;DHT22;3661;53.288;10.458;2023-05-07T15:49:19;19.50;96.80
7240;DHT22;3661;53.288;10.458;2023-05-07T15:51:54;19.50;96.70
7240;DHT22;3661;53.288;10.458;2023-05-07T15:54:29;19.40;96.70
7240;DHT22;3661;53.288;10.458;2023-05-07T15:57:01;19.30;96.80
7240;DHT22;3661;53.288;10.458;2023-05-07T15:59:34;19.30;96.90
7240;DHT22;3661;53.288;10.458;2023-05-07T16:02:06;19.20;96.80
7240;DHT22;3661;53.288;10.458;2023-05-07T16:04:40;19.10;96.80
7240;DHT22;3661;53.288;10.458;2023-05-07T16:07:12;19.00;96.80
7240;DHT22;3661;53.288;10.458;2023-05-07T16:09:44;18.90;96.70
7240;DHT22;3661;53.288;10.458;2023-05-07T16:12:17;18.90;96.60
7240;DHT22;3661;53.288;10.458;2023-05-07T16:14:49;18.80;96.70
7240;DHT22;3661;53.288;10.458;2023-05-07T16:17:21;18.80;96.80
7240;DHT22;3661;53.288;10.458;2023-05-07T16:19:55;18.70;96.90
7240;DHT22;3661;53.288;10.458;2023-05-07T16:22:28;18.70;96.90
7240;DHT22;3661;53.288;10.458;2023-05-07T16:25:01;18.60;96.90
7240;DHT22;3661;53.288;10.458;2023-05-07T16:27:34;18.60;96.90
7240;DHT22;3661;53.288;10.458;2023-05-07T16:30:07;18.60;97.00
7240;DHT22;3661;53.288;10.458;2023-05-07T16:32:40;18.60;97.00
7240;DHT22;3661;53.288;10.458;2023-05-07T16:35:13;18.60;97.00
7240;DHT22;3661;53.288;10.458;2023-05-07T16:37:45;18.60;97.00
7240;DHT22;3661;53.288;10.458;2023-05-07T16:40:18;18.60;97.10